createdAt,value
2024-04-12T00:01:46.412Z,96005.78
2024-04-12T00:04:18.828Z,96015.22
2024-04-12T00:06:51.075Z,96002.06
2024-04-12T00:09:22.414Z,96009.16
2024-04-12T00:11:50.904Z,96013.00
2024-04-12T00:14:18.857Z,96018.59
2024-04-12T00:16:51.983Z,96015.91
2024-04-12T00:19:22.880Z,96008.91
2024-04-12T00:21:57.054Z,96016.63
2024-04-12T00:24:27.687Z,96014.75
2024-04-12T00:26:56.119Z,96012.19
2024-04-12T00:29:27.952Z,96017.44
2024-04-12T00:32:05.523Z,96008.09
2024-04-12T00:34:39.715Z,96016.38
2024-04-12T00:37:08.904Z,96004.06
2024-04-12T00:39:37.278Z,96018.81
2024-04-12T00:42:08.778Z,96016.38
2024-04-12T00:44:40.801Z,96012.50
2024-04-12T00:47:17.478Z,96027.72
2024-04-12T00:49:52.720Z,96018.34
2024-04-12T00:52:25.329Z,96018.34
2024-04-12T00:55:10.940Z,96029.06
2024-04-12T00:57:40.815Z,96023.47
2024-04-12T01:00:21.449Z,96026.91
2024-04-12T01:02:50.795Z,96024.72
2024-04-12T01:05:20.028Z,96029.28
2024-04-12T01:07:52.193Z,96019.16
2024-04-12T01:10:41.767Z,96018.81
2024-04-12T01:13:13.190Z,96018.59
2024-04-12T01:15:40.891Z,96011.13
2024-04-12T01:18:18.152Z,96014.03
2024-04-12T01:20:47.130Z,96013.31
2024-04-12T01:23:18.388Z,96000.97
2024-04-12T01:25:46.955Z,96010.09
2024-04-12T01:28:17.907Z,96011.44
2024-04-12T01:30:47.949Z,96007.06
2024-04-12T01:33:16.060Z,96021.13
2024-04-12T01:35:46.661Z,96017.03
2024-04-12T01:38:21.643Z,96011.69
2024-04-12T01:41:00.529Z,96012.97
2024-04-12T01:43:29.946Z,95981.25
2024-04-12T01:45:57.504Z,96017.25
2024-04-12T01:48:25.452Z,96016.13
2024-04-12T01:50:53.007Z,96027.50
2024-04-12T01:53:23.552Z,96025.91
2024-04-12T01:55:52.742Z,96022.25
2024-04-12T01:58:23.315Z,96021.22
2024-04-12T02:00:51.187Z,96019.25
2024-04-12T02:03:19.946Z,96005.13
2024-04-12T02:05:50.115Z,96023.31
2024-04-12T02:08:18.667Z,96021.72
2024-04-12T02:10:50.784Z,96034.16
2024-04-12T02:13:24.122Z,96022.09
2024-04-12T02:15:56.575Z,96018.16
2024-04-12T02:18:25.227Z,96025.56
2024-04-12T02:20:54.563Z,96024.19
2024-04-12T02:23:23.507Z,96025.88
2024-04-12T02:25:52.197Z,96029.25
2024-04-12T02:28:20.222Z,96035.09
2024-04-12T02:30:56.282Z,96023.53
2024-04-12T02:33:34.505Z,96030.44
2024-04-12T02:36:13.631Z,96029.00
2024-04-12T02:38:46.269Z,96021.25
2024-04-12T02:41:16.878Z,96024.69
2024-04-12T02:43:56.640Z,96033.81
2024-04-12T02:46:25.039Z,96038.50
2024-04-12T02:48:53.414Z,96044.41
2024-04-12T02:51:24.407Z,96028.56
2024-04-12T02:53:53.470Z,96037.34
2024-04-12T02:56:25.807Z,96020.66
2024-04-12T02:58:54.201Z,96019.06
2024-04-12T03:01:23.594Z,96000.91
2024-04-12T03:04:00.570Z,96044.72
2024-04-12T03:06:33.775Z,96038.50
2024-04-12T03:09:03.635Z,96024.34
2024-04-12T03:11:39.272Z,96033.09
2024-04-12T03:14:11.726Z,96035.31
2024-04-12T03:16:41.904Z,96034.88
2024-04-12T03:19:11.961Z,96033.47
2024-04-12T03:21:39.682Z,96029.75
2024-04-12T03:24:07.522Z,96039.91
2024-04-12T03:26:34.679Z,96035.31
2024-04-12T03:29:05.023Z,96036.66
2024-04-12T03:31:35.170Z,96035.25
2024-04-12T03:34:06.599Z,96043.34
2024-04-12T03:36:37.554Z,96040.81
2024-04-12T03:39:22.734Z,96049.66
2024-04-12T03:41:52.385Z,96050.38
2024-04-12T03:44:19.847Z,96056.69
2024-04-12T03:46:51.300Z,96059.28
2024-04-12T03:49:24.759Z,96064.78
2024-04-12T03:51:55.677Z,96059.88
2024-04-12T03:54:23.639Z,96067.00
2024-04-12T03:56:51.179Z,96066.25
2024-04-12T03:59:19.193Z,96070.78
2024-04-12T04:01:46.675Z,96070.94
2024-04-12T04:04:18.427Z,96075.25
2024-04-12T04:06:46.330Z,96077.34
2024-04-12T04:09:14.121Z,96079.25
2024-04-12T04:11:43.917Z,96082.91
2024-04-12T04:14:11.312Z,96081.94
2024-04-12T04:16:38.362Z,96084.22
2024-04-12T04:19:05.913Z,96089.56
2024-04-12T04:21:39.634Z,96087.09
2024-04-12T04:24:13.011Z,96085.25
2024-04-12T04:26:41.454Z,96091.19
2024-04-12T04:29:10.826Z,96088.50
2024-04-12T04:31:45.366Z,96095.56
2024-04-12T04:34:14.320Z,96095.88
2024-04-12T04:36:41.881Z,96092.28
2024-04-12T04:39:08.926Z,96089.00
2024-04-12T04:41:36.034Z,96098.66
2024-04-12T04:44:03.052Z,96091.06
2024-04-12T04:46:30.025Z,96093.47
2024-04-12T04:48:57.800Z,96092.81
2024-04-12T04:51:24.987Z,96096.00
2024-04-12T04:53:54.957Z,96094.72
2024-04-12T04:56:32.016Z,96095.44
2024-04-12T04:58:59.108Z,96094.66
2024-04-12T05:01:29.083Z,96100.00
2024-04-12T05:03:58.453Z,96095.22
2024-04-12T05:06:26.107Z,96102.91
2024-04-12T05:08:56.918Z,96097.56
2024-04-12T05:11:30.453Z,96102.19
2024-04-12T05:14:07.302Z,96099.66
2024-04-12T05:16:34.310Z,96112.81
2024-04-12T05:19:09.627Z,96103.97
2024-04-12T05:21:38.234Z,96113.75
2024-04-12T05:24:10.797Z,96112.47
2024-04-12T05:26:43.903Z,96109.94
2024-04-12T05:29:11.696Z,96115.53
2024-04-12T05:31:39.657Z,96113.66
2024-04-12T05:34:06.772Z,96114.22
2024-04-12T05:36:37.662Z,96106.19
2024-04-12T05:39:10.136Z,96115.63
2024-04-12T05:41:38.061Z,96118.06
2024-04-12T05:44:07.809Z,96115.31
2024-04-12T05:46:36.126Z,96111.41
2024-04-12T05:49:10.502Z,96121.59
2024-04-12T05:51:39.261Z,96118.78
2024-04-12T05:54:27.069Z,96112.59
2024-04-12T05:56:54.311Z,96119.47
2024-04-12T05:59:21.753Z,96117.66
2024-04-12T06:01:51.442Z,96120.66
2024-04-12T06:04:22.220Z,96111.53
2024-04-12T06:06:49.850Z,96112.75
2024-04-12T06:09:21.883Z,96124.69
2024-04-12T06:11:50.148Z,96121.13
2024-04-12T06:14:17.510Z,96110.63
2024-04-12T06:16:45.618Z,96116.81
2024-04-12T06:19:13.659Z,96104.84
2024-04-12T06:21:46.463Z,96111.59
2024-04-12T06:24:27.199Z,96107.22
2024-04-12T06:26:56.568Z,96107.59
2024-04-12T06:29:32.703Z,96110.03
2024-04-12T06:32:08.814Z,96107.97
2024-04-12T06:34:39.546Z,96103.81
2024-04-12T06:37:10.672Z,96107.84
2024-04-12T06:39:38.364Z,96109.91
2024-04-12T06:42:07.098Z,96107.22
2024-04-12T06:44:34.402Z,96102.38
2024-04-12T06:47:02.485Z,96105.38
2024-04-12T06:49:29.836Z,96108.97
2024-04-12T06:52:13.696Z,96107.16
2024-04-12T06:54:44.173Z,96100.75
2024-04-12T06:57:23.023Z,96106.75
2024-04-12T07:00:00.419Z,96102.72
2024-04-12T07:02:32.058Z,96111.38
2024-04-12T07:05:00.828Z,96100.72
2024-04-12T07:07:30.372Z,96104.06
2024-04-12T07:10:03.003Z,96099.41
2024-04-12T07:12:34.275Z,96099.97
2024-04-12T07:15:02.151Z,96099.59
2024-04-12T07:17:32.364Z,96103.22
2024-04-12T07:20:01.144Z,96107.41
2024-04-12T07:22:30.542Z,96101.22
2024-04-12T07:25:00.617Z,96103.94
2024-04-12T07:27:30.897Z,96103.69
2024-04-12T07:29:59.568Z,96096.69
2024-04-12T07:32:37.356Z,96097.03
2024-04-12T07:35:24.446Z,96097.59
2024-04-12T07:37:59.132Z,96097.31
2024-04-12T07:40:33.338Z,96091.03
2024-04-12T07:43:09.988Z,96089.94
2024-04-12T07:45:40.699Z,96091.31
2024-04-12T07:48:29.196Z,96080.28
2024-04-12T07:51:02.752Z,96075.94
2024-04-12T07:53:32.102Z,96081.88
2024-04-12T07:56:31.336Z,96074.31
2024-04-12T07:59:15.004Z,96080.25
2024-04-12T08:01:48.856Z,96074.81
2024-04-12T08:04:25.597Z,96070.16
2024-04-12T08:06:53.231Z,96067.69
2024-04-12T08:09:23.951Z,96072.53
2024-04-12T08:12:00.478Z,96071.69
2024-04-12T08:14:30.947Z,96072.88
2024-04-12T08:17:02.485Z,96074.72
2024-04-12T08:19:40.337Z,96073.09
2024-04-12T08:22:08.319Z,96071.69
2024-04-12T08:24:36.016Z,96076.78
2024-04-12T08:27:04.063Z,96072.41
2024-04-12T08:29:34.130Z,96071.47
2024-04-12T08:32:11.227Z,96064.53
2024-04-12T08:34:46.796Z,96068.84
2024-04-12T08:37:14.966Z,96064.31
2024-04-12T08:39:45.441Z,96064.34
2024-04-12T08:42:15.897Z,96060.66
2024-04-12T08:44:46.824Z,96059.59
2024-04-12T08:47:18.181Z,96060.03
2024-04-12T08:49:49.515Z,96060.34
2024-04-12T08:52:32.075Z,96056.38
2024-04-12T08:57:35.280Z,96047.56
2024-04-12T09:00:02.467Z,96047.56
2024-04-12T09:02:42.355Z,96047.03
2024-04-12T09:05:14.194Z,96040.81
2024-04-12T09:07:46.394Z,96037.31
2024-04-12T09:10:17.471Z,96046.84
2024-04-12T09:12:46.034Z,96040.22
2024-04-12T09:15:25.610Z,96039.34
2024-04-12T09:18:00.704Z,96034.00
2024-04-12T09:20:31.821Z,96026.22
2024-04-12T09:23:14.977Z,96025.22
2024-04-12T09:25:42.877Z,96035.09
2024-04-12T09:28:14.416Z,96033.88
2024-04-12T09:31:01.324Z,96017.94
2024-04-12T09:33:30.332Z,96021.16
2024-04-12T09:36:06.684Z,96015.84
2024-04-12T09:38:34.882Z,96022.09
2024-04-12T09:41:14.337Z,96015.66
2024-04-12T09:43:48.720Z,96010.50
2024-04-12T09:46:25.247Z,96012.84
2024-04-12T09:49:12.779Z,96005.75
2024-04-12T09:52:18.127Z,96012.53
2024-04-12T09:55:17.564Z,96006.09
2024-04-12T09:58:04.831Z,96001.66
2024-04-12T10:00:50.266Z,95996.00
2024-04-12T10:03:36.627Z,95993.19
2024-04-12T10:06:22.557Z,95984.66
2024-04-12T10:09:10.662Z,95987.84
2024-04-12T10:11:58.931Z,95982.22
2024-04-12T10:14:45.223Z,95987.78
2024-04-12T10:17:31.333Z,95978.00
2024-04-12T10:20:17.551Z,95977.94
2024-04-12T10:23:03.316Z,95978.53
2024-04-12T10:25:53.262Z,95974.84
2024-04-12T10:28:38.780Z,95978.88
2024-04-12T10:31:30.892Z,95968.91
2024-04-12T10:34:26.525Z,95965.69
2024-04-12T10:37:15.495Z,95971.91
2024-04-12T10:39:51.282Z,95965.56
2024-04-12T10:42:22.273Z,95960.34
2024-04-12T10:44:52.357Z,95958.53
2024-04-12T10:47:22.224Z,95938.16
2024-04-12T10:49:51.293Z,95950.28
2024-04-12T10:52:20.509Z,95945.94
2024-04-12T10:54:49.086Z,95941.38
2024-04-12T10:57:17.018Z,95941.13
2024-04-12T10:59:44.291Z,95939.69
2024-04-12T11:02:14.341Z,95946.50
2024-04-12T11:05:00.833Z,95935.16
2024-04-12T11:07:29.026Z,95934.66
2024-04-12T11:09:59.410Z,95937.91
2024-04-12T11:12:30.277Z,95929.31
2024-04-12T11:15:16.571Z,95925.13
2024-04-12T11:18:08.940Z,95927.22
2024-04-12T11:21:01.396Z,95925.97
2024-04-12T11:23:47.322Z,95923.41
2024-04-12T11:26:36.613Z,95916.47
2024-04-12T11:29:25.871Z,95910.53
2024-04-12T11:31:55.312Z,95914.25
2024-04-12T11:34:31.546Z,95906.31
2024-04-12T11:37:07.301Z,95901.78
2024-04-12T11:39:38.697Z,95905.81
2024-04-12T11:42:07.067Z,95908.59
2024-04-12T11:44:35.635Z,95895.31
2024-04-12T11:47:04.570Z,95893.56
2024-04-12T11:49:43.473Z,95890.03
2024-04-12T11:52:19.910Z,95899.72
2024-04-12T11:54:54.602Z,95892.81
2024-04-12T11:57:24.311Z,95884.78
2024-04-12T12:00:01.720Z,95877.22
2024-04-12T12:02:44.649Z,95882.53
2024-04-12T12:05:19.048Z,95876.22
2024-04-12T12:07:47.560Z,95877.22
2024-04-12T12:10:15.808Z,95872.91
2024-04-12T12:12:45.118Z,95864.25
2024-04-12T12:15:15.917Z,95861.72
2024-04-12T12:17:43.455Z,95862.25
2024-04-12T12:20:10.569Z,95858.50
2024-04-12T12:22:39.866Z,95850.53
2024-04-12T12:25:09.330Z,95843.94
2024-04-12T12:27:36.552Z,95841.56
2024-04-12T12:30:15.078Z,95820.00
2024-04-12T12:32:45.974Z,95831.69
2024-04-12T12:35:31.421Z,95834.72
2024-04-12T12:38:00.478Z,95843.25
2024-04-12T12:40:31.310Z,95839.78
2024-04-12T12:42:58.301Z,95834.03
2024-04-12T12:45:26.130Z,95841.19
2024-04-12T12:47:54.867Z,95828.44
2024-04-12T12:50:24.107Z,95828.00
2024-04-12T12:52:51.668Z,95828.66
2024-04-12T12:55:24.217Z,95822.44
2024-04-12T12:58:10.280Z,95825.22
2024-04-12T13:00:38.177Z,95808.69
2024-04-12T13:03:12.077Z,95811.59
2024-04-12T13:05:42.270Z,95817.66
2024-04-12T13:08:09.288Z,95814.19
2024-04-12T13:10:39.404Z,95800.00
2024-04-12T13:13:06.589Z,95809.50
2024-04-12T13:15:34.095Z,95803.16
2024-04-12T13:18:01.249Z,95809.03
2024-04-12T13:20:28.466Z,95798.34
2024-04-12T13:22:55.526Z,95797.00
2024-04-12T13:25:22.513Z,95797.94
2024-04-12T13:27:49.727Z,95801.25
2024-04-12T13:30:17.037Z,95799.09
2024-04-12T13:32:45.250Z,95799.66
2024-04-12T13:35:13.898Z,95797.28
2024-04-12T13:37:41.312Z,95798.84
2024-04-12T13:40:11.667Z,95797.94
2024-04-12T13:42:40.556Z,95793.94
2024-04-12T13:45:27.396Z,95796.25
2024-04-12T13:48:13.639Z,95796.63
2024-04-12T13:50:56.454Z,95782.56
2024-04-12T13:53:39.245Z,95786.78
2024-04-12T13:56:24.680Z,95788.41
2024-04-12T13:58:58.348Z,95785.00
2024-04-12T14:01:25.444Z,95789.66
2024-04-12T14:03:52.797Z,95787.41
2024-04-12T14:06:24.342Z,95786.16
2024-04-12T14:08:52.246Z,95784.75
2024-04-12T14:11:19.462Z,95785.63
2024-04-12T14:13:47.474Z,95778.63
2024-04-12T14:16:14.994Z,95779.66
2024-04-12T14:18:42.133Z,95780.59
2024-04-12T14:21:09.347Z,95779.44
2024-04-12T14:23:36.466Z,95771.66
2024-04-12T14:26:05.722Z,95765.16
2024-04-12T14:28:32.760Z,95760.84
2024-04-12T14:30:59.822Z,95763.59
2024-04-12T14:33:29.743Z,95760.28
2024-04-12T14:35:59.653Z,95766.59
2024-04-12T14:38:27.994Z,95759.50
2024-04-12T14:41:04.694Z,95764.47
2024-04-12T14:43:31.634Z,95763.44
2024-04-12T14:46:01.405Z,95763.97
2024-04-12T14:48:29.360Z,95760.06
2024-04-12T14:50:56.772Z,95756.59
2024-04-12T14:53:23.999Z,95739.69
2024-04-12T14:55:51.167Z,95760.19
2024-04-12T14:58:18.194Z,95759.19
2024-04-12T15:00:49.725Z,95759.84
2024-04-12T15:03:36.182Z,95753.34
2024-04-12T15:06:21.894Z,95763.28
2024-04-12T15:09:07.647Z,95752.16
2024-04-12T15:11:53.856Z,95744.16
2024-04-12T15:14:40.147Z,95748.78
2024-04-12T15:17:26.128Z,95754.63
2024-04-12T15:20:11.994Z,95750.53
2024-04-12T15:22:57.865Z,95750.88
2024-04-12T15:25:43.231Z,95746.69
2024-04-12T15:28:28.877Z,95749.41
2024-04-12T15:31:14.408Z,95743.66
2024-04-12T15:34:00.073Z,95756.47
2024-04-12T15:36:45.766Z,95745.00
2024-04-12T15:39:31.107Z,95753.19
2024-04-12T15:42:16.960Z,95741.88
2024-04-12T15:45:02.751Z,95743.94
2024-04-12T15:47:30.268Z,95738.00
2024-04-12T15:50:18.167Z,95736.22
2024-04-12T15:53:07.184Z,95727.06
2024-04-12T15:55:42.468Z,95735.69
2024-04-12T15:58:28.350Z,95733.06
2024-04-12T16:01:14.030Z,95726.56
2024-04-12T16:03:59.759Z,95727.50
2024-04-12T16:06:45.544Z,95728.88
2024-04-12T16:09:30.920Z,95732.81
2024-04-12T16:11:58.172Z,95736.56
2024-04-12T16:14:25.175Z,95729.88
2024-04-12T16:16:52.464Z,95740.28
2024-04-12T16:19:19.388Z,95736.03
2024-04-12T16:21:46.487Z,95742.00
2024-04-12T16:24:14.203Z,95737.00
2024-04-12T16:26:41.311Z,95731.22
2024-04-12T16:29:10.227Z,95735.69
2024-04-12T16:31:40.154Z,95735.09
2024-04-12T16:34:11.360Z,95740.53
2024-04-12T16:36:39.329Z,95738.25
2024-04-12T16:39:06.372Z,95731.28
2024-04-12T16:41:34.000Z,95740.72
2024-04-12T16:44:05.050Z,95743.66
2024-04-12T16:46:34.055Z,95745.44
2024-04-12T16:49:02.981Z,95744.78
2024-04-12T16:51:30.176Z,95740.25
2024-04-12T16:53:57.290Z,95743.38
2024-04-12T16:56:25.412Z,95740.25
2024-04-12T16:58:58.090Z,95750.84
2024-04-12T17:01:25.922Z,95745.13
2024-04-12T17:03:53.388Z,95744.09
2024-04-12T17:06:20.913Z,95747.34
2024-04-12T17:08:48.992Z,95751.03
2024-04-12T17:11:16.084Z,95752.66
2024-04-12T17:13:43.108Z,95743.50
2024-04-12T17:16:10.294Z,95752.31
2024-04-12T17:18:38.196Z,95747.06
2024-04-12T17:21:05.691Z,95757.59
2024-04-12T17:23:32.855Z,95767.66
2024-04-12T17:26:01.718Z,95766.19
2024-04-12T17:28:28.692Z,95765.53
2024-04-12T17:30:59.458Z,95742.53
2024-04-12T17:33:30.241Z,95773.72
2024-04-12T17:35:57.453Z,95777.13
2024-04-12T17:38:24.551Z,95783.38
2024-04-12T17:40:51.837Z,95780.66
2024-04-12T17:43:18.823Z,95778.47
2024-04-12T17:45:45.989Z,95787.13
2024-04-12T17:48:13.129Z,95781.47
2024-04-12T17:50:40.187Z,95787.75
2024-04-12T17:53:07.301Z,95788.59
2024-04-12T17:55:34.296Z,95794.38
2024-04-12T17:58:05.616Z,95787.91
2024-04-12T18:00:35.797Z,95785.47
2024-04-12T18:03:03.040Z,95788.00
2024-04-12T18:05:30.069Z,95788.78
2024-04-12T18:07:57.561Z,95788.84
2024-04-12T18:10:24.663Z,95789.44
2024-04-12T18:12:51.702Z,95793.00
2024-04-12T18:15:19.852Z,95794.88
2024-04-12T18:17:47.154Z,95794.13
2024-04-12T18:20:14.313Z,95802.25
2024-04-12T18:22:42.241Z,95804.22
2024-04-12T18:25:09.824Z,95803.22
2024-04-12T18:27:41.249Z,95805.94
2024-04-12T18:30:11.767Z,95798.38
2024-04-12T18:32:39.002Z,95802.47
2024-04-12T18:35:11.428Z,95799.31
2024-04-12T18:37:57.269Z,95800.34
2024-04-12T18:40:42.946Z,95801.69
2024-04-12T18:43:28.425Z,95800.63
2024-04-12T18:45:55.833Z,95806.03
2024-04-12T18:48:23.298Z,95811.50
2024-04-12T18:50:50.424Z,95807.97
2024-04-12T18:53:17.480Z,95802.88
2024-04-12T18:55:48.333Z,95811.22
2024-04-12T18:58:15.494Z,95814.25
2024-04-12T19:00:49.867Z,95816.41
2024-04-12T19:03:17.061Z,95816.94
2024-04-12T19:05:46.411Z,95824.25
2024-04-12T19:08:13.458Z,95809.94
2024-04-12T19:10:41.809Z,95816.72
2024-04-12T19:13:09.101Z,95814.59
2024-04-12T19:15:40.179Z,95816.50
2024-04-12T19:18:10.437Z,95814.63
2024-04-12T19:20:43.771Z,95812.75
2024-04-12T19:23:11.075Z,95815.19
2024-04-12T19:25:38.314Z,95814.38
2024-04-12T19:28:06.167Z,95820.59
2024-04-12T19:30:37.011Z,95818.72
2024-04-12T19:33:04.464Z,95814.91
2024-04-12T19:35:31.819Z,95816.00
2024-04-12T19:37:58.874Z,95811.13
2024-04-12T19:40:26.119Z,95811.16
2024-04-12T19:42:53.161Z,95812.50
2024-04-12T19:45:20.383Z,95817.59
2024-04-12T19:47:47.485Z,95827.56
2024-04-12T19:50:14.699Z,95841.81
2024-04-12T19:52:50.601Z,95837.50
2024-04-12T19:55:21.649Z,95837.50
2024-04-12T19:57:48.614Z,95839.16
2024-04-12T20:00:15.950Z,95847.22
2024-04-12T20:02:45.794Z,95842.63
2024-04-12T20:05:12.862Z,95848.88
2024-04-12T20:07:39.893Z,95848.31
2024-04-12T20:10:10.835Z,95841.81
2024-04-12T20:12:37.974Z,95856.91
2024-04-12T20:15:05.501Z,95846.16
2024-04-12T20:17:32.906Z,95854.22
2024-04-12T20:20:04.431Z,95853.41
2024-04-12T20:22:31.603Z,95851.56
2024-04-12T20:24:59.897Z,95856.38
2024-04-12T20:27:28.760Z,95853.69
2024-04-12T20:30:08.237Z,95855.06
2024-04-12T20:32:38.560Z,95856.63
2024-04-12T20:35:14.712Z,95859.03
2024-04-12T20:37:43.924Z,95862.25
2024-04-12T20:40:11.950Z,95856.09
2024-04-12T20:42:39.005Z,95852.56
2024-04-12T20:45:06.397Z,95858.78
2024-04-12T20:47:33.659Z,95855.28
2024-04-12T20:50:00.815Z,95857.41
2024-04-12T20:52:27.783Z,95862.47
2024-04-12T20:54:54.891Z,95870.31
2024-04-12T20:57:21.885Z,95862.97
2024-04-12T20:59:52.548Z,95865.41
2024-04-12T21:02:19.784Z,95867.81
2024-04-12T21:04:51.335Z,95866.50
2024-04-12T21:07:18.907Z,95870.00
2024-04-12T21:09:46.158Z,95870.81
2024-04-12T21:12:13.632Z,95878.09
2024-04-12T21:14:41.564Z,95879.16
2024-04-12T21:17:09.809Z,95877.78
2024-04-12T21:19:37.195Z,95885.03
2024-04-12T21:22:04.510Z,95883.03
2024-04-12T21:24:32.887Z,95883.03
2024-04-12T21:27:00.568Z,95882.22
2024-04-12T21:29:28.629Z,95879.19
2024-04-12T21:31:55.900Z,95884.50
2024-04-12T21:34:23.241Z,95885.84
2024-04-12T21:36:50.492Z,95878.84
2024-04-12T21:39:18.554Z,95885.06
2024-04-12T21:41:45.663Z,95875.94
2024-04-12T21:44:12.965Z,95886.16
2024-04-12T21:46:40.141Z,95891.56
2024-04-12T21:49:07.224Z,95884.31
2024-04-12T21:51:34.856Z,95886.16
2024-04-12T21:54:02.217Z,95875.34
2024-04-12T21:56:29.325Z,95884.53
2024-04-12T21:58:56.387Z,95882.41
2024-04-12T22:01:23.580Z,95877.53
2024-04-12T22:03:52.111Z,95879.88
2024-04-12T22:06:19.416Z,95889.38
2024-04-12T22:08:46.833Z,95885.50
2024-04-12T22:11:15.023Z,95880.19
2024-04-12T22:13:42.037Z,95879.41
2024-04-12T22:16:14.028Z,95880.13
2024-04-12T22:18:41.582Z,95879.63
2024-04-12T22:21:13.593Z,95870.53
2024-04-12T22:23:45.056Z,95878.50
2024-04-12T22:26:14.343Z,95876.47
2024-04-12T22:28:42.675Z,95877.44
2024-04-12T22:31:19.789Z,95874.59
2024-04-12T22:33:50.783Z,95874.34
2024-04-12T22:36:20.356Z,95878.72
2024-04-12T22:38:48.223Z,95878.16
2024-04-12T22:41:15.475Z,95874.16
2024-04-12T22:43:42.573Z,95874.44
2024-04-12T22:46:09.584Z,95874.13
2024-04-12T22:48:38.623Z,95879.31
2024-04-12T22:51:07.432Z,95875.31
2024-04-12T22:53:35.788Z,95876.81
2024-04-12T22:56:02.878Z,95881.53
2024-04-12T22:58:30.019Z,95880.34
2024-04-12T23:00:57.112Z,95876.81
2024-04-12T23:03:24.225Z,95881.69
2024-04-12T23:05:51.241Z,95878.50
2024-04-12T23:08:18.364Z,95877.69
2024-04-12T23:10:47.376Z,95878.56
2024-04-12T23:13:14.595Z,95875.56
2024-04-12T23:15:42.224Z,95868.94
2024-04-12T23:18:13.937Z,95871.56
2024-04-12T23:20:41.942Z,95872.47
2024-04-12T23:23:09.822Z,95868.63
2024-04-12T23:25:37.919Z,95868.41
2024-04-12T23:28:08.626Z,95866.81
2024-04-12T23:30:35.830Z,95871.91
2024-04-12T23:33:03.088Z,95873.50
2024-04-12T23:35:30.251Z,95874.91
2024-04-12T23:37:57.221Z,95874.91
2024-04-12T23:40:24.566Z,95866.56
2024-04-12T23:42:51.673Z,95869.03
2024-04-12T23:45:18.792Z,95873.56
2024-04-12T23:47:45.877Z,95870.00
2024-04-12T23:50:13.101Z,95874.34
2024-04-12T23:52:40.243Z,95868.06
2024-04-12T23:55:11.036Z,95875.66
2024-04-12T23:57:38.404Z,95872.47
